Time;durP1;ratioP1;P1;durP2;ratioP2;P2;SDS_P1;SDS_P2;PMS_P1;PMS_P2;Temp;Humidity;BMP_temperature;BMP_pressure;BME280_temperature;BME280_humidity;BME280_pressure;Samples;Min_cycle;Max_cycle;Signal;HPM_P1;HPM_P2
2022/06/03 00:01:12;;;;;;;5.22;2.92;;;;;;;12.49;80.76;102042.72;5055759;28;20029;-41
2022/06/03 00:03:49;;;;;;;6.28;2.83;;;;;;;12.42;80.77;102037.38;5055768;28;20036;-41
2022/06/03 00:06:32;;;;;;;3.95;2.83;;;;;;;12.45;80.26;102043.19;5055890;28;20025;-41
2022/06/03 00:09:29;;;;;;;7.30;2.72;;;;;;;12.36;80.48;102034.66;5056058;28;20048;-42
2022/06/03 00:12:13;;;;;;;9.52;3.00;;;;;;;12.46;80.33;102037.03;5054413;28;20025;-41
2022/06/03 00:14:44;;;;;;;6.00;3.00;;;;;;;12.36;80.48;102021.69;5056007;28;20025;-41
2022/06/03 00:17:32;;;;;;;7.40;2.88;;;;;;;12.26;80.32;102016.72;5055704;28;20040;-41
2022/06/03 00:20:15;;;;;;;5.18;2.90;;;;;;;12.40;80.01;102033.34;5055727;28;20028;-42
2022/06/03 00:22:46;;;;;;;6.30;3.08;;;;;;;12.30;79.34;102035.31;5056111;28;20029;-42
2022/06/03 00:25:23;;;;;;;5.82;2.65;;;;;;;12.25;80.10;102030.63;5055571;28;20041;-42
2022/06/03 00:28:11;;;;;;;5.80;2.85;;;;;;;12.19;80.45;102034.69;5055481;28;20025;-40
2022/06/03 00:30:51;;;;;;;3.97;2.90;;;;;;;12.15;80.33;102027.44;5055679;28;20039;-41
2022/06/03 00:33:40;;;;;;;6.50;2.60;;;;;;;12.12;80.27;102025.19;5055533;28;20021;-40
2022/06/03 00:36:17;;;;;;;8.65;3.15;;;;;;;12.15;79.77;102028.25;5055534;28;20510;-41
2022/06/03 00:39:10;;;;;;;8.45;2.90;;;;;;;12.15;80.61;102019.66;5055167;28;20029;-42
2022/06/03 00:41:59;;;;;;;5.70;3.03;;;;;;;12.10;79.53;102014.97;5055694;28;20112;-41
2022/06/03 00:45:04;;;;;;;4.10;2.90;;;;;;;12.07;80.41;102020.47;5055287;28;20349;-41
2022/06/03 00:47:48;;;;;;;5.78;2.95;;;;;;;12.10;79.76;102011.56;5055168;28;20025;-41
2022/06/03 00:50:28;;;;;;;6.82;2.97;;;;;;;12.06;79.26;102016.28;5055046;28;20032;-41
2022/06/03 00:53:05;;;;;;;5.28;2.90;;;;;;;12.14;79.33;102012.84;5055138;28;20020;-42
2022/06/03 00:55:56;;;;;;;6.32;3.05;;;;;;;12.11;79.50;102016.59;5055185;28;20036;-41
2022/06/03 00:58:38;;;;;;;6.35;3.05;;;;;;;11.99;79.51;102015.31;5053646;28;20033;-40
2022/06/03 01:01:03;;;;;;;6.93;3.15;;;;;;;12.03;79.44;102016.63;5055141;28;20348;-40
2022/06/03 01:03:56;;;;;;;6.65;2.90;;;;;;;11.91;79.79;102015.34;5054773;28;20116;-41
2022/06/03 01:06:55;;;;;;;6.70;2.97;;;;;;;11.94;79.74;102015.84;5055035;28;20067;-41
2022/06/03 01:09:26;;;;;;;5.72;2.90;;;;;;;11.81;79.75;101989.59;5055255;28;20036;-41
2022/06/03 01:12:21;;;;;;;6.25;2.92;;;;;;;12.01;79.50;102010.78;5054566;28;20078;-41
2022/06/03 01:14:54;;;;;;;6.45;2.78;;;;;;;11.96;79.33;102008.69;5054796;28;20367;-41
2022/06/03 01:17:48;;;;;;;5.07;2.80;;;;;;;11.91;79.42;102013.56;5055065;28;20024;-41
2022/06/03 01:20:17;;;;;;;7.88;2.95;;;;;;;11.72;79.62;102009.53;5054732;28;20043;-40
2022/06/03 01:22:57;;;;;;;6.35;3.03;;;;;;;11.76;79.96;102004.81;5054553;28;20056;-40
2022/06/03 01:25:44;;;;;;;3.78;2.63;;;;;;;11.83;80.47;102005.78;5054568;28;20436;-41
2022/06/03 01:28:34;;;;;;;5.15;2.80;;;;;;;11.90;79.97;102005.97;5054852;28;20029;-41
2022/06/03 01:31:22;;;;;;;10.35;3.00;;;;;;;11.78;79.95;102007.25;5054265;28;20105;-47
2022/06/03 01:34:05;;;;;;;5.78;2.80;;;;;;;11.70;79.68;102001.09;5054227;28;20040;-41
2022/06/03 01:36:57;;;;;;;5.50;2.90;;;;;;;11.68;79.43;101999.66;5054303;28;20036;-42
2022/06/03 01:39:37;;;;;;;5.65;2.90;;;;;;;11.68;79.31;101999.66;5052893;28;20036;-41
2022/06/03 01:42:14;;;;;;;7.75;2.80;;;;;;;11.61;79.11;101998.69;5054041;28;20029;-40
2022/06/03 01:44:40;;;;;;;5.05;2.65;;;;;;;11.68;78.78;101991.88;5054055;28;20430;-42
2022/06/03 01:47:30;;;;;;;5.68;2.50;;;;;;;11.80;78.19;101993.16;5053584;28;20032;-42
2022/06/03 01:50:26;;;;;;;6.78;2.90;;;;;;;11.62;78.18;101987.34;5052708;28;20029;-42
2022/06/03 01:52:56;;;;;;;5.68;2.85;;;;;;;11.60;78.97;101986.75;5054195;28;20087;-41
2022/06/03 01:56:00;;;;;;;4.00;2.65;;;;;;;11.64;78.51;101983.63;5054009;28;20032;-41
2022/06/03 01:58:48;;;;;;;7.65;2.70;;;;;;;11.79;78.11;101983.75;5053742;28;20114;-41
2022/06/03 02:02:07;;;;;;;6.50;2.40;;;;;;;11.83;78.11;101985.06;5053982;28;20029;-42
2022/06/03 02:04:54;;;;;;;5.88;2.55;;;;;;;11.62;77.99;101970.03;5053703;28;20057;-41
2022/06/03 02:08:01;;;;;;;7.13;2.83;;;;;;;11.69;77.88;101978.78;5053575;28;20104;-41
2022/06/03 02:10:46;;;;;;;5.57;2.58;;;;;;;11.71;77.78;101976.84;5041803;28;20051;-41
2022/06/03 02:13:43;;;;;;;7.13;2.72;;;;;;;11.81;77.54;101970.66;5053382;28;20040;-41
2022/06/03 02:16:39;;;;;;;6.03;2.72;;;;;;;11.82;77.26;101969.69;5053744;28;20056;-41
2022/06/03 02:19:16;;;;;;;6.30;2.67;;;;;;;12.01;77.69;101969.34;5053767;28;20074;-41
2022/06/03 02:22:19;;;;;;;4.25;2.58;;;;;;;12.01;76.36;101968.53;5053390;28;20108;-41
2022/06/03 02:25:19;;;;;;;4.75;2.80;;;;;;;11.92;76.77;101963.38;5053317;28;20040;-41
2022/06/03 02:28:09;;;;;;;8.00;2.72;;;;;;;11.82;77.12;101969.69;5053517;28;20034;-40
2022/06/03 02:31:02;;;;;;;6.15;3.10;;;;;;;11.86;77.73;101958.06;5053535;28;20078;-42
2022/06/03 02:33:33;;;;;;;5.30;2.80;;;;;;;11.86;77.90;101961.47;5053620;28;20486;-41
2022/06/03 02:36:40;;;;;;;7.20;2.58;;;;;;;11.90;77.68;101961.91;5053273;28;20029;-42
2022/06/03 02:39:27;;;;;;;5.00;2.65;;;;;;;11.87;77.69;101944.13;5052857;28;20369;-41
2022/06/03 02:42:04;;;;;;;6.18;2.88;;;;;;;11.89;77.90;101953.34;5053347;28;20060;-42
2022/06/03 02:44:59;;;;;;;6.18;3.03;;;;;;;11.84;78.10;101949.59;5053626;28;20032;-41
2022/06/03 02:47:53;;;;;;;4.28;2.80;;;;;;;11.83;78.15;101958.38;5053452;28;20025;-41
2022/06/03 02:50:30;;;;;;;6.18;2.90;;;;;;;11.86;77.67;101960.66;5053187;28;20082;-42
2022/06/03 02:53:21;;;;;;;6.25;2.88;;;;;;;11.81;77.92;101962.91;5053343;28;20029;-41
2022/06/03 02:56:05;;;;;;;4.43;2.95;;;;;;;11.57;78.38;101956.81;5053424;28;20025;-42
2022/06/03 02:58:52;;;;;;;5.03;2.97;;;;;;;11.75;78.61;101956.59;5056848;28;20029;-40
2022/06/03 03:01:45;;;;;;;9.13;3.13;;;;;;;11.61;78.63;101960.66;5057221;28;20025;-41
2022/06/03 03:04:34;;;;;;;7.13;3.55;;;;;;;11.61;78.03;101962.44;5056832;28;20451;-41
2022/06/03 03:07:30;;;;;;;5.82;3.10;;;;;;;11.55;78.61;101956.16;5057547;28;20407;-42
2022/06/03 03:10:15;;;;;;;10.00;3.22;;;;;;;11.45;78.33;101935.63;5057237;28;20138;-42
2022/06/03 03:13:02;;;;;;;6.60;3.47;;;;;;;11.56;78.19;101955.16;5056865;28;20399;-41
2022/06/03 03:16:03;;;;;;;5.82;3.35;;;;;;;11.80;78.38;101951.72;5057136;28;20078;-41
2022/06/03 03:18:29;;;;;;;8.25;3.38;;;;;;;11.75;78.16;101944.44;5056733;28;20438;-40
2022/06/03 03:21:09;;;;;;;5.15;3.17;;;;;;;11.84;77.51;101944.44;5057044;28;20033;-40
2022/06/03 03:24:10;;;;;;;7.82;3.30;;;;;;;11.72;77.51;101942.19;5056750;28;20096;-41
2022/06/03 03:27:00;;;;;;;5.07;3.45;;;;;;;11.79;77.50;101944.91;5056514;28;20024;-41
2022/06/03 03:30:12;;;;;;;6.82;3.40;;;;;;;11.78;77.89;101937.34;5056556;28;20036;-41
2022/06/03 03:32:56;;;;;;;6.72;3.35;;;;;;;11.64;77.78;101947.38;5055224;28;20036;-41
2022/06/03 03:36:03;;;;;;;7.05;3.63;;;;;;;11.79;78.27;101944.13;5056455;28;20060;-41
2022/06/03 03:38:51;;;;;;;5.20;3.60;;;;;;;11.80;77.77;101940.56;5053237;28;20095;-40
2022/06/03 03:41:29;;;;;;;8.05;3.72;;;;;;;11.82;77.70;101931.63;5056883;28;20032;-40
2022/06/03 03:44:16;;;;;;;5.82;3.50;;;;;;;11.73;77.81;101930.84;5056769;28;20470;-41
2022/06/03 03:47:00;;;;;;;9.90;3.92;;;;;;;11.86;78.03;101926.97;5056404;28;20569;-41
2022/06/03 03:49:49;;;;;;;5.00;3.55;;;;;;;11.90;78.27;101925.66;5056331;28;20025;-42
2022/06/03 03:52:17;;;;;;;7.60;3.50;;;;;;;11.84;78.19;101929.69;5056302;28;20032;-41
2022/06/03 03:54:42;;;;;;;5.65;3.40;;;;;;;11.92;78.94;101923.72;5056208;28;20099;-40
2022/06/03 03:57:43;;;;;;;7.45;3.30;;;;;;;11.92;78.39;101921.13;5056150;28;20617;-42
2022/06/03 04:00:13;;;;;;;6.15;3.38;;;;;;;11.91;78.94;101919.50;5037389;28;20421;-42
2022/06/03 04:03:04;;;;;;;6.55;3.33;;;;;;;11.93;78.99;101923.53;5056182;28;20025;-43
2022/06/03 04:06:06;;;;;;;5.82;3.55;;;;;;;11.97;78.73;101924.03;5055615;28;20383;-42
2022/06/03 04:08:48;;;;;;;7.07;3.60;;;;;;;11.88;79.37;101925.00;5053515;28;20033;-42
2022/06/03 04:11:55;;;;;;;5.65;3.33;;;;;;;12.01;79.36;101930.47;5054834;28;20051;-41
2022/06/03 04:15:01;;;;;;;10.27;3.67;;;;;;;11.95;78.90;101926.78;5055889;28;20033;-41
2022/06/03 04:17:49;;;;;;;8.23;3.85;;;;;;;11.93;79.41;101926.13;5055731;28;20025;-42
2022/06/03 04:20:47;;;;;;;6.15;4.00;;;;;;;11.72;80.05;101931.84;5056006;28;20059;-39
2022/06/03 04:23:40;;;;;;;8.63;4.05;;;;;;;11.71;80.67;101921.66;5055568;28;20052;-41
2022/06/03 04:26:40;;;;;;;6.37;3.97;;;;;;;11.74;80.01;101919.53;5055695;28;20033;-40
2022/06/03 04:29:34;;;;;;;5.15;3.60;;;;;;;11.58;80.55;101905.81;5047212;28;20060;-41
2022/06/03 04:32:29;;;;;;;7.28;3.75;;;;;;;11.75;79.43;101904.81;5055648;28;20341;-41
2022/06/03 04:35:28;;;;;;;7.53;3.60;;;;;;;11.82;79.55;101905.75;5055100;28;20104;-41
2022/06/03 04:38:26;;;;;;;7.13;3.90;;;;;;;12.02;78.75;101902.78;5055387;28;20029;-42
2022/06/03 04:40:51;;;;;;;7.20;3.92;;;;;;;12.00;78.78;101897.78;5055341;28;20407;-40
2022/06/03 04:43:32;;;;;;;7.03;3.83;;;;;;;12.04;78.40;101901.63;5055256;28;20099;-42
2022/06/03 04:46:48;;;;;;;4.80;3.53;;;;;;;12.07;78.19;101890.94;5054503;28;20039;-41
2022/06/03 04:49:16;;;;;;;7.15;3.30;;;;;;;12.18;78.29;101880.19;5042735;28;20040;-41
2022/06/03 04:52:16;;;;;;;8.20;3.80;;;;;;;12.33;78.00;101892.44;5055186;28;20056;-42
2022/06/03 04:54:56;;;;;;;9.50;3.88;;;;;;;12.36;77.47;101885.09;5055097;28;20029;-41
2022/06/03 04:57:45;;;;;;;8.73;3.75;;;;;;;12.52;76.78;101888.59;5055085;28;20033;-42
2022/06/03 05:00:25;;;;;;;7.15;3.90;;;;;;;12.35;77.86;101888.69;5054716;28;20028;-42
2022/06/03 05:03:24;;;;;;;7.72;3.70;;;;;;;12.25;78.39;101892.47;5054869;28;20029;-42
2022/06/03 05:05:49;;;;;;;8.07;4.15;;;;;;;12.34;78.14;101900.03;5054978;28;20076;-41
2022/06/03 05:08:52;;;;;;;6.63;3.88;;;;;;;12.37;78.62;101904.88;5054831;28;20542;-40
2022/06/03 05:11:29;;;;;;;7.72;3.60;;;;;;;12.41;77.69;101900.16;5054483;28;20029;-41
2022/06/03 05:14:28;;;;;;;10.20;4.30;;;;;;;12.38;77.81;101898.72;5054617;28;20119;-42
2022/06/03 05:17:05;;;;;;;9.90;3.83;;;;;;;12.51;77.52;101907.69;5054771;28;20037;-40
2022/06/03 05:19:30;;;;;;;6.10;3.85;;;;;;;12.73;76.87;101901.72;5054519;28;20052;-41
2022/06/03 05:22:10;;;;;;;10.57;4.00;;;;;;;12.65;76.76;101902.56;5054154;28;20040;-42
2022/06/03 05:25:04;;;;;;;6.15;3.78;;;;;;;12.82;76.31;101892.09;5054075;28;20056;-41
2022/06/03 05:27:30;;;;;;;9.18;4.00;;;;;;;12.80;76.09;101894.03;5054468;28;20036;-41
2022/06/03 05:30:09;;;;;;;6.30;3.70;;;;;;;12.86;75.52;101904.53;5054086;28;20048;-42
2022/06/03 05:32:40;;;;;;;8.50;4.00;;;;;;;12.93;76.08;101899.47;5054289;28;20424;-41
2022/06/03 05:35:31;;;;;;;10.55;4.07;;;;;;;13.18;74.75;101907.84;5054210;28;20372;-41
2022/06/03 05:38:07;;;;;;;7.32;4.22;;;;;;;13.40;74.26;101900.19;5054484;28;20060;-41
2022/06/03 05:40:38;;;;;;;10.02;4.00;;;;;;;13.23;73.25;101902.09;5054118;28;20025;-43
2022/06/03 05:43:32;;;;;;;7.03;3.75;;;;;;;16.69;63.13;101897.91;5054148;28;20024;-42
2022/06/03 05:46:18;;;;;;;6.20;3.90;;;;;;;22.58;44.32;101908.09;5052407;28;20419;-41
2022/06/03 05:48:46;;;;;;;8.55;3.80;;;;;;;22.69;44.53;101893.25;5053763;28;20096;-41
2022/06/03 05:51:45;;;;;;;7.38;3.25;;;;;;;23.30;42.40;101895.94;5053764;28;20037;-42
2022/06/03 05:54:39;;;;;;;8.07;3.42;;;;;;;17.85;54.30;101901.75;5053664;28;20025;-41
2022/06/03 05:57:11;;;;;;;7.45;3.38;;;;;;;18.23;55.78;101905.16;5053934;28;20033;-43
2022/06/03 05:59:52;;;;;;;6.55;3.40;;;;;;;21.51;46.50;101898.28;5054140;28;20029;-41
2022/06/03 06:02:48;;;;;;;6.50;3.10;;;;;;;23.79;40.94;101893.38;5053702;28;20032;-42
2022/06/03 06:05:42;;;;;;;7.05;3.25;;;;;;;26.14;37.86;101891.25;5053725;28;20021;-41
2022/06/03 06:08:25;;;;;;;6.38;3.00;;;;;;;26.47;36.13;101890.72;5053368;28;20032;-41
2022/06/03 06:11:17;;;;;;;8.48;2.90;;;;;;;26.74;34.16;101884.34;5054226;28;20029;-42
2022/06/03 06:13:45;;;;;;;6.95;3.30;;;;;;;27.60;33.54;101893.03;5053567;28;20025;-42
2022/06/03 06:16:42;;;;;;;6.30;2.80;;;;;;;27.61;32.80;101895.41;5053325;28;20027;-41
2022/06/03 06:19:17;;;;;;;8.20;2.90;;;;;;;26.65;35.18;101897.34;5053579;28;20032;-41
2022/06/03 06:22:03;;;;;;;5.68;2.90;;;;;;;27.39;33.63;101898.44;5053342;28;20091;-41
2022/06/03 06:24:34;;;;;;;5.50;3.10;;;;;;;26.79;34.35;101894.94;5052970;28;20052;-42
2022/06/03 06:27:33;;;;;;;5.18;3.10;;;;;;;27.50;33.53;101898.38;5053469;28;20033;-42
2022/06/03 06:30:21;;;;;;;5.82;2.95;;;;;;;27.80;32.50;101900.09;5053200;28;20021;-41
2022/06/03 06:32:56;;;;;;;5.68;2.95;;;;;;;28.05;32.52;101897.25;5052295;28;20051;-40
2022/06/03 06:35:44;;;;;;;4.82;3.13;;;;;;;25.70;35.26;101902.31;5053642;28;20115;-42
2022/06/03 06:38:35;;;;;;;6.78;3.28;;;;;;;25.74;34.97;101901.50;5053271;28;20032;-41
2022/06/03 06:41:15;;;;;;;4.38;2.95;;;;;;;25.53;37.06;101903.31;5053716;28;20410;-42
2022/06/03 06:43:40;;;;;;;4.63;3.40;;;;;;;25.14;36.66;101901.03;5053197;28;20520;-41
2022/06/03 06:46:18;;;;;;;6.07;3.63;;;;;;;23.07;40.84;101896.97;5053274;28;20113;-41
2022/06/03 06:49:04;;;;;;;7.90;3.38;;;;;;;21.75;43.92;101891.94;5053119;28;20028;-41
2022/06/03 06:52:04;;;;;;;6.95;3.22;;;;;;;20.68;47.14;101898.31;5053359;28;20104;-42
2022/06/03 06:54:55;;;;;;;6.90;3.60;;;;;;;20.56;47.48;101902.75;5051778;28;20032;-42
2022/06/03 06:57:25;;;;;;;8.20;3.50;;;;;;;20.69;46.23;101893.88;5053235;28;20494;-41
2022/06/03 07:00:24;;;;;;;5.18;3.45;;;;;;;19.96;49.47;101893.09;5053462;28;20087;-41
2022/06/03 07:03:16;;;;;;;12.13;4.35;;;;;;;20.25;48.06;101896.75;5053388;28;20027;-42
2022/06/03 07:05:51;;;;;;;8.07;3.50;;;;;;;20.45;48.03;101895.63;5053152;28;20029;-41
2022/06/03 07:08:23;;;;;;;11.77;3.50;;;;;;;20.82;47.84;101895.47;5053420;28;20040;-41
2022/06/03 07:11:05;;;;;;;;;;;;;;;19.92;48.35;101896.41;5054032;28;20061;-41
2022/06/03 07:13:45;;;;;;;9.32;3.63;;;;;;;20.60;47.75;101888.16;5053050;28;20334;-42
2022/06/03 07:22:20;;;;;;;5.18;3.00;;;;;;;20.69;45.83;101886.81;5053282;28;20060;-42
2022/06/03 07:24:57;;;;;;;7.30;2.97;;;;;;;21.26;46.16;101888.03;5052556;28;20484;-41
2022/06/03 07:27:44;;;;;;;6.20;3.10;;;;;;;21.03;46.41;101878.34;5052933;28;20113;-42
2022/06/03 07:30:12;;;;;;;5.13;2.90;;;;;;;21.13;47.67;101879.34;5052685;28;20033;-41
2022/06/03 07:32:47;;;;;;;6.18;3.00;;;;;;;21.18;46.50;101882.09;5053017;28;20079;-42
2022/06/03 07:35:55;;;;;;;5.07;3.33;;;;;;;21.31;46.09;101878.41;5053353;28;20104;-41
2022/06/03 07:38:28;;;;;;;3.55;2.88;;;;;;;21.55;45.73;101884.47;5052940;28;20021;-42
2022/06/03 07:41:08;;;;;;;5.72;3.10;;;;;;;21.45;45.09;101884.25;5053046;28;20052;-41
2022/06/03 07:43:52;;;;;;;6.53;3.13;;;;;;;21.63;45.61;101878.81;5053636;28;20021;-41
2022/06/03 07:46:29;;;;;;;7.80;3.10;;;;;;;21.70;44.71;101870.00;5054846;28;20031;-41
2022/06/03 07:48:55;;;;;;;4.88;2.85;;;;;;;21.31;45.73;101878.41;5056299;28;20028;-41
2022/06/03 07:51:31;;;;;;;6.40;3.22;;;;;;;21.05;46.72;101876.28;5056143;28;20025;-41
2022/06/03 07:54:04;;;;;;;5.75;3.08;;;;;;;21.34;47.10;101877.16;5056016;28;20108;-40
2022/06/03 07:56:32;;;;;;;7.10;3.70;;;;;;;20.83;46.96;101871.63;5056757;28;20027;-41
2022/06/03 07:59:02;;;;;;;5.45;2.60;;;;;;;21.67;46.98;101863.38;5055847;28;20032;-40
2022/06/03 08:01:32;;;;;;;6.47;2.85;;;;;;;21.72;46.41;101867.91;5055959;28;20024;-40
2022/06/03 08:03:57;;;;;;;7.40;2.90;;;;;;;22.35;44.78;101871.41;5056028;28;20028;-40
2022/06/03 08:12:14;;;;;;;5.93;2.92;;;;;;;22.49;44.48;101856.88;5056332;28;20040;-41
2022/06/03 08:14:40;;;;;;;4.25;2.92;;;;;;;21.86;44.25;101858.69;5055585;28;20025;-40
2022/06/03 08:17:08;;;;;;;7.35;2.97;;;;;;;22.08;44.73;101856.19;5056278;28;20082;-42
2022/06/03 08:19:35;;;;;;;6.18;2.80;;;;;;;22.00;45.00;101860.00;5055524;28;20079;-41
2022/06/03 08:22:05;;;;;;;5.25;3.00;;;;;;;22.41;44.99;101859.91;5055897;28;20107;-41
2022/06/03 08:24:38;;;;;;;7.97;3.28;;;;;;;22.59;45.57;101864.16;5054966;28;20048;-42
2022/06/03 08:27:13;;;;;;;7.68;3.00;;;;;;;22.58;45.21;101859.91;5055482;28;20112;-41
2022/06/03 08:29:47;;;;;;;6.80;3.00;;;;;;;23.20;43.34;101842.06;5055316;28;20390;-42
2022/06/03 08:32:20;;;;;;;14.68;3.40;;;;;;;23.35;43.16;101851.19;5055910;28;20127;-42
2022/06/03 08:34:51;;;;;;;20.30;4.32;;;;;;;22.79;43.80;101847.81;5055215;28;20463;-42
2022/06/03 08:37:22;;;;;;;13.23;3.35;;;;;;;22.93;44.05;101847.22;5055841;28;20067;-41
2022/06/03 08:39:49;;;;;;;11.50;3.60;;;;;;;23.84;42.63;101830.88;5055303;28;20029;-42
2022/06/03 08:42:26;;;;;;;4.90;2.75;;;;;;;23.29;42.66;101841.63;5055266;28;20096;-40
2022/06/03 08:44:54;;;;;;;8.70;2.55;;;;;;;23.99;43.14;101842.63;5055187;28;20484;-41
2022/06/03 08:47:42;;;;;;;19.90;4.35;;;;;;;24.00;42.17;101823.09;5055421;28;20396;-42
2022/06/03 08:50:10;;;;;;;12.48;3.33;;;;;;;;;;5055222;28;20032;-42
2022/06/03 08:53:26;;;;;;;4.53;2.80;;;;;;;24.19;41.80;101831.41;5055213;28;20028;-43
2022/06/03 08:55:56;;;;;;;5.03;2.58;;;;;;;24.37;41.96;101835.50;5042743;28;20033;-41
2022/06/03 08:58:24;;;;;;;6.15;2.72;;;;;;;23.84;42.64;101830.09;5055086;28;20462;-41
2022/06/03 09:01:13;;;;;;;5.07;2.38;;;;;;;24.13;43.83;101822.66;5055080;28;20528;-42
2022/06/03 09:03:47;;;;;;;4.32;2.67;;;;;;;24.48;41.59;101822.13;5055053;28;20033;-41
2022/06/03 09:06:46;;;;;;;5.03;2.40;;;;;;;24.91;43.17;101817.59;5054890;28;20375;-41
2022/06/03 09:09:39;;;;;;;4.70;2.85;;;;;;;24.82;42.16;101819.16;5054850;28;20476;-41
2022/06/03 09:12:12;;;;;;;6.40;2.70;;;;;;;24.25;41.21;101823.28;5054964;28;20025;-41
2022/06/03 09:14:41;;;;;;;5.28;2.83;;;;;;;23.82;42.42;101821.59;5054834;28;20021;-41
2022/06/03 09:17:28;;;;;;;4.30;2.58;;;;;;;23.91;41.28;101820.13;5054736;28;20032;-41
2022/06/03 09:19:58;;;;;;;5.85;2.80;;;;;;;23.76;41.36;101822.59;5054715;28;20035;-41
2022/06/03 09:22:26;;;;;;;7.90;2.63;;;;;;;23.44;42.21;101831.25;5054616;28;20031;-41
2022/06/03 09:24:55;;;;;;;3.58;2.30;;;;;;;24.36;41.12;101813.59;5054048;28;20051;-41
2022/06/03 09:27:21;;;;;;;7.28;2.85;;;;;;;24.12;41.58;101807.88;5054643;28;20079;-40
2022/06/03 09:29:51;;;;;;;3.85;2.55;;;;;;;25.33;40.36;101806.16;5054468;28;20032;-42
2022/06/03 09:32:19;;;;;;;6.20;2.10;;;;;;;25.65;38.88;101802.50;5054645;28;20413;-42
2022/06/03 09:34:52;;;;;;;5.57;2.50;;;;;;;25.02;39.95;101799.16;5055059;28;20100;-42
2022/06/03 09:37:22;;;;;;;4.00;2.40;;;;;;;25.11;39.41;101810.81;5054154;28;20063;-41
2022/06/03 09:39:50;;;;;;;7.22;2.47;;;;;;;24.82;39.68;101807.78;5053955;28;20074;-43
2022/06/03 09:42:18;;;;;;;5.68;2.90;;;;;;;25.61;39.09;101804.09;5054915;28;20025;-42
2022/06/03 09:44:46;;;;;;;6.65;2.58;;;;;;;25.78;37.89;101804.63;5053851;28;20029;-42
2022/06/03 09:47:16;;;;;;;5.38;2.75;;;;;;;25.85;38.29;101809.69;5054482;28;20040;-41
2022/06/03 09:49:46;;;;;;;4.78;2.33;;;;;;;26.38;37.60;101807.50;5054171;28;20108;-42
2022/06/03 09:52:14;;;;;;;4.47;2.38;;;;;;;26.14;37.62;101811.78;5054341;28;20374;-43
2022/06/03 09:54:43;;;;;;;5.68;2.55;;;;;;;24.17;39.42;101804.47;5053880;28;20021;-42
2022/06/03 09:57:27;;;;;;;6.95;2.40;;;;;;;24.80;38.64;101815.19;5054072;28;20120;-42
2022/06/03 10:00:00;;;;;;;5.47;2.70;;;;;;;24.67;38.68;101804.03;5054429;28;20364;-42
2022/06/03 10:02:27;;;;;;;5.03;2.28;;;;;;;25.38;37.24;101802.72;5053716;28;20028;-42
2022/06/03 10:04:53;;;;;;;3.28;2.10;;;;;;;25.11;37.48;101811.59;5053809;28;20029;-42
2022/06/03 10:07:18;;;;;;;4.20;2.30;;;;;;;24.97;38.79;101806.03;5053195;28;20049;-41
2022/06/03 10:12:50;;;;;;;5.05;2.40;;;;;;;25.61;36.54;101804.88;5053920;28;20032;-42
2022/06/03 10:15:40;;;;;;;8.55;2.53;;;;;;;25.88;36.70;101804.66;5054162;28;20203;-42
2022/06/03 10:18:14;;;;;;;3.78;2.10;;;;;;;24.76;37.33;101794.53;5053485;28;20117;-41
2022/06/03 10:20:39;;;;;;;5.13;2.45;;;;;;;25.41;38.00;101804.84;5053636;28;20414;-41
2022/06/03 10:23:08;;;;;;;7.35;2.50;;;;;;;25.64;37.45;101800.91;5053260;28;20028;-42
2022/06/03 10:25:39;;;;;;;5.75;2.30;;;;;;;25.46;37.97;101802.19;5053250;28;20136;-40
2022/06/03 10:28:07;;;;;;;4.72;2.20;;;;;;;25.48;39.20;101800.09;5053540;28;20037;-41
2022/06/03 10:30:36;;;;;;;7.03;2.55;;;;;;;25.78;37.70;101793.22;5053163;28;20483;-41
2022/06/03 10:33:02;;;;;;;4.20;2.47;;;;;;;25.96;36.61;101790.09;5053229;28;20422;-41
2022/06/03 10:35:31;;;;;;;7.28;2.35;;;;;;;26.26;37.01;101797.19;5053620;28;20039;-41
2022/06/03 10:37:59;;;;;;;9.07;2.35;;;;;;;26.42;36.06;101790.03;5053056;28;20017;-42
2022/06/03 10:40:26;;;;;;;5.68;2.20;;;;;;;25.79;37.30;101789.53;5053470;28;20039;-42
2022/06/03 10:42:57;;;;;;;6.13;2.47;;;;;;;25.93;36.83;101781.91;5053541;28;20059;-40
2022/06/03 10:45:27;;;;;;;4.63;2.20;;;;;;;26.03;35.98;101782.66;5053277;28;20025;-42
2022/06/03 10:47:53;;;;;;;5.30;2.72;;;;;;;26.26;36.73;101775.22;5053782;28;20032;-42
2022/06/03 10:50:28;;;;;;;3.55;2.17;;;;;;;27.11;36.14;101769.88;5053061;28;20029;-41
2022/06/03 11:01:43;;;;;;;3.53;2.00;;;;;;;26.13;34.19;101770.47;5053803;28;20153;-41
2022/06/03 11:04:27;;;;;;;3.33;2.05;;;;;;;25.47;34.31;101760.69;5052836;28;20060;-41
2022/06/03 11:06:54;;;;;;;6.22;2.00;;;;;;;25.89;35.65;101755.13;5052865;28;20033;-43
2022/06/03 11:09:22;;;;;;;5.03;2.00;;;;;;;25.76;36.65;101747.72;5053364;28;20472;-42
2022/06/03 11:12:07;;;;;;;5.18;1.90;;;;;;;24.97;36.82;101757.63;5053061;28;20063;-42
2022/06/03 11:14:42;;;;;;;4.55;1.92;;;;;;;25.50;35.28;101752.22;5052531;28;20418;-43
2022/06/03 11:17:11;;;;;;;3.15;1.80;;;;;;;26.25;35.68;101747.13;5053033;28;20023;-41
2022/06/03 11:19:47;;;;;;;4.18;1.90;;;;;;;26.27;33.76;101755.63;5056715;28;20425;-41
2022/06/03 11:22:19;;;;;;;3.13;1.80;;;;;;;25.79;32.82;101747.97;5056647;28;20422;-42
2022/06/03 11:24:50;;;;;;;3.28;2.05;;;;;;;26.35;33.11;101741.78;5056445;28;20049;-41
2022/06/03 11:27:18;;;;;;;3.70;1.65;;;;;;;27.00;33.44;101739.97;5057560;28;20048;-42
2022/06/03 11:29:47;;;;;;;2.70;2.05;;;;;;;25.69;32.14;101737.38;5056274;28;20090;-41
2022/06/03 11:32:16;;;;;;;2.60;2.00;;;;;;;25.77;32.88;101731.53;5056577;28;20029;-41
2022/06/03 11:34:51;;;;;;;6.85;1.77;;;;;;;26.57;33.19;101725.59;5056604;28;20037;-41
2022/06/03 11:37:26;;;;;;;3.65;1.70;;;;;;;26.46;31.94;101726.66;5056558;28;20055;-42
2022/06/03 11:40:00;;;;;;;4.90;1.55;;;;;;;26.75;31.09;101737.44;5056844;28;20035;-42
2022/06/03 11:42:50;;;;;;;5.40;1.90;;;;;;;25.83;31.44;101727.88;5056496;28;20021;-42
2022/06/03 11:45:21;;;;;;;3.50;1.88;;;;;;;27.34;31.17;101728.63;5056719;28;20020;-41
2022/06/03 11:48:08;;;;;;;3.70;1.50;;;;;;;26.99;30.74;101726.97;5056415;28;20029;-42
2022/06/03 11:50:35;;;;;;;9.98;2.60;;;;;;;27.01;31.72;101720.31;5056290;28;20025;-41
2022/06/03 11:53:01;;;;;;;5.57;1.60;;;;;;;27.22;30.01;101720.22;5055954;28;20033;-41
2022/06/03 11:55:31;;;;;;;2.67;1.60;;;;;;;27.45;29.53;101724.03;5056093;28;20079;-41
2022/06/03 11:58:05;;;;;;;5.18;1.85;;;;;;;26.57;29.59;101727.47;5055760;28;20032;-41
2022/06/03 12:00:37;;;;;;;6.43;1.80;;;;;;;26.91;30.08;101720.38;5056094;28;20086;-41
2022/06/03 12:03:23;;;;;;;2.83;1.58;;;;;;;26.33;31.09;101736.00;5056322;28;20044;-41
2022/06/03 12:05:58;;;;;;;2.83;1.60;;;;;;;27.13;29.57;101740.41;5055784;28;20025;-42
2022/06/03 12:08:54;;;;;;;7.22;2.05;;;;;;;27.01;30.41;101735.44;5055734;28;20047;-41
2022/06/03 12:14:42;;;;;;;12.10;1.90;;;;;;;26.50;29.94;101741.00;5046884;28;20031;-41
2022/06/03 12:17:13;;;;;;;3.80;1.80;;;;;;;25.86;31.03;101742.44;5055431;28;20033;-41
2022/06/03 12:19:43;;;;;;;8.82;1.73;;;;;;;26.75;30.43;101750.69;5055819;28;20021;-42
2022/06/03 12:22:29;;;;;;;2.63;1.50;;;;;;;26.38;30.48;101746.56;5055847;28;20016;-42
2022/06/03 12:24:56;;;;;;;2.35;1.60;;;;;;;26.66;30.89;101742.50;5055463;28;20102;-41
2022/06/03 12:27:32;;;;;;;4.22;1.55;;;;;;;26.16;30.27;101741.59;5056411;28;20372;-41
2022/06/03 12:30:18;;;;;;;2.20;1.40;;;;;;;27.16;30.25;101747.84;5054587;28;20025;-42
2022/06/03 12:33:19;;;;;;;2.80;1.70;;;;;;;27.20;29.11;101748.91;5055670;28;20021;-42
2022/06/03 12:36:00;;;;;;;4.15;1.58;;;;;;;26.90;30.19;101731.25;5046711;28;20345;-41
2022/06/03 12:38:47;;;;;;;3.93;1.60;;;;;;;27.56;29.23;101733.47;5055811;28;20123;-41
2022/06/03 12:41:58;;;;;;;2.72;1.70;;;;;;;27.14;31.92;101732.19;5050169;28;20041;-42
2022/06/03 12:44:34;;;;;;;5.80;1.67;;;;;;;27.25;28.56;101735.59;5053162;28;20041;-42
2022/06/03 12:47:17;;;;;;;3.00;1.80;;;;;;;26.76;30.02;101734.53;5054802;28;20467;-41
2022/06/03 12:49:43;;;;;;;8.60;1.95;;;;;;;26.50;30.34;101736.50;5055391;28;20033;-41
2022/06/03 12:52:11;;;;;;;3.50;1.80;;;;;;;26.54;29.80;101736.75;5054740;28;20032;-40
2022/06/03 12:55:22;;;;;;;3.83;1.77;;;;;;;26.29;32.20;101734.94;5055187;28;20111;-41
2022/06/03 12:57:56;;;;;;;2.35;1.90;;;;;;;26.30;30.11;101752.44;5053717;28;20033;-42